sensor_id;sensor_type;location;lat;lon;timestamp;temperature;humidity
66594;DHT22;53450;42.584;23.366;2023-10-31T00:01:12;9.22;75.39
66594;DHT22;53450;42.584;23.366;2023-10-31T00:03:38;9.19;75.59
66594;DHT22;53450;42.584;23.366;2023-10-31T00:06:06;9.19;75.78
66594;DHT22;53450;42.584;23.366;2023-10-31T00:08:31;9.22;75.20
66594;DHT22;53450;42.584;23.366;2023-10-31T00:10:57;9.20;74.91
66594;DHT22;53450;42.584;23.366;2023-10-31T00:13:22;9.17;75.28
66594;DHT22;53450;42.584;23.366;2023-10-31T00:15:48;9.17;75.85
66594;DHT22;53450;42.584;23.366;2023-10-31T00:18:13;9.12;76.18
66594;DHT22;53450;42.584;23.366;2023-10-31T00:20:39;9.19;76.26
66594;DHT22;53450;42.584;23.366;2023-10-31T00:23:05;9.19;76.23
66594;DHT22;53450;42.584;23.366;2023-10-31T00:25:30;9.23;75.86
66594;DHT22;53450;42.584;23.366;2023-10-31T00:27:56;9.31;75.70
66594;DHT22;53450;42.584;23.366;2023-10-31T00:30:21;9.33;75.69
66594;DHT22;53450;42.584;23.366;2023-10-31T00:32:47;9.27;74.84
66594;DHT22;53450;42.584;23.366;2023-10-31T00:35:12;9.24;74.70
66594;DHT22;53450;42.584;23.366;2023-10-31T00:37:38;9.19;75.05
66594;DHT22;53450;42.584;23.366;2023-10-31T00:40:06;9.19;75.10
66594;DHT22;53450;42.584;23.366;2023-10-31T00:42:32;9.17;75.51
66594;DHT22;53450;42.584;23.366;2023-10-31T00:44:59;9.06;75.56
66594;DHT22;53450;42.584;23.366;2023-10-31T00:47:24;9.05;75.76
66594;DHT22;53450;42.584;23.366;2023-10-31T00:49:50;8.96;76.03
66594;DHT22;53450;42.584;23.366;2023-10-31T00:52:15;8.88;76.34
66594;DHT22;53450;42.584;23.366;2023-10-31T00:54:41;8.80;76.90
66594;DHT22;53450;42.584;23.366;2023-10-31T00:57:07;8.73;77.13
66594;DHT22;53450;42.584;23.366;2023-10-31T00:59:33;8.61;77.48
66594;DHT22;53450;42.584;23.366;2023-10-31T01:01:58;8.61;77.93
66594;DHT22;53450;42.584;23.366;2023-10-31T01:04:24;8.61;78.11
66594;DHT22;53450;42.584;23.366;2023-10-31T01:07:17;8.57;78.38
66594;DHT22;53450;42.584;23.366;2023-10-31T01:09:43;8.51;78.59
66594;DHT22;53450;42.584;23.366;2023-10-31T01:12:09;8.52;78.87
66594;DHT22;53450;42.584;23.366;2023-10-31T01:14:36;8.52;79.41
66594;DHT22;53450;42.584;23.366;2023-10-31T01:17:02;8.52;79.53
66594;DHT22;53450;42.584;23.366;2023-10-31T01:19:27;8.52;79.64
66594;DHT22;53450;42.584;23.366;2023-10-31T01:21:54;8.55;80.03
66594;DHT22;53450;42.584;23.366;2023-10-31T01:24:19;8.62;79.39
66594;DHT22;53450;42.584;23.366;2023-10-31T01:26:45;8.59;79.46
66594;DHT22;53450;42.584;23.366;2023-10-31T01:29:11;8.55;79.64
66594;DHT22;53450;42.584;23.366;2023-10-31T01:31:36;8.57;79.76
66594;DHT22;53450;42.584;23.366;2023-10-31T01:34:02;8.61;79.68
66594;DHT22;53450;42.584;23.366;2023-10-31T01:36:28;8.62;79.11
66594;DHT22;53450;42.584;23.366;2023-10-31T01:39:19;8.55;79.47
66594;DHT22;53450;42.584;23.366;2023-10-31T01:42:13;8.48;79.32
66594;DHT22;53450;42.584;23.366;2023-10-31T01:44:40;8.37;79.66
66594;DHT22;53450;42.584;23.366;2023-10-31T01:47:05;8.41;79.74
66594;DHT22;53450;42.584;23.366;2023-10-31T01:49:31;8.45;79.67
66594;DHT22;53450;42.584;23.366;2023-10-31T01:52:00;8.41;79.80
66594;DHT22;53450;42.584;23.366;2023-10-31T01:54:25;8.47;79.83
66594;DHT22;53450;42.584;23.366;2023-10-31T01:56:51;8.44;79.90
66594;DHT22;53450;42.584;23.366;2023-10-31T01:59:21;8.31;80.17
66594;DHT22;53450;42.584;23.366;2023-10-31T02:01:48;8.36;80.66
66594;DHT22;53450;42.584;23.366;2023-10-31T02:04:14;8.36;80.91
66594;DHT22;53450;42.584;23.366;2023-10-31T02:06:40;8.36;80.97
66594;DHT22;53450;42.584;23.366;2023-10-31T02:09:06;8.36;81.20
66594;DHT22;53450;42.584;23.366;2023-10-31T02:11:31;8.37;81.09
66594;DHT22;53450;42.584;23.366;2023-10-31T02:13:57;8.38;81.42
66594;DHT22;53450;42.584;23.366;2023-10-31T02:16:23;8.34;81.66
66594;DHT22;53450;42.584;23.366;2023-10-31T02:18:48;8.28;81.64
66594;DHT22;53450;42.584;23.366;2023-10-31T02:21:14;8.23;81.66
66594;DHT22;53450;42.584;23.366;2023-10-31T02:23:41;8.33;81.62
66594;DHT22;53450;42.584;23.366;2023-10-31T02:26:07;8.38;81.47
66594;DHT22;53450;42.584;23.366;2023-10-31T02:28:32;8.36;81.56
66594;DHT22;53450;42.584;23.366;2023-10-31T02:30:58;8.34;81.59
66594;DHT22;53450;42.584;23.366;2023-10-31T02:33:24;8.30;81.37
66594;DHT22;53450;42.584;23.366;2023-10-31T02:35:49;8.33;82.03
66594;DHT22;53450;42.584;23.366;2023-10-31T02:38:14;8.30;82.06
66594;DHT22;53450;42.584;23.366;2023-10-31T02:40:40;8.38;82.24
66594;DHT22;53450;42.584;23.366;2023-10-31T02:43:31;8.31;83.05
66594;DHT22;53450;42.584;23.366;2023-10-31T02:46:22;8.36;83.05
66594;DHT22;53450;42.584;23.366;2023-10-31T02:48:48;8.31;83.12
66594;DHT22;53450;42.584;23.366;2023-10-31T02:51:13;8.41;83.09
66594;DHT22;53450;42.584;23.366;2023-10-31T02:53:39;8.41;82.70
66594;DHT22;53450;42.584;23.366;2023-10-31T02:56:04;8.38;83.03
66594;DHT22;53450;42.584;23.366;2023-10-31T02:58:31;8.38;83.00
66594;DHT22;53450;42.584;23.366;2023-10-31T03:00:56;8.40;83.25
66594;DHT22;53450;42.584;23.366;2023-10-31T03:03:22;8.42;82.85
66594;DHT22;53450;42.584;23.366;2023-10-31T03:05:47;8.42;82.91
66594;DHT22;53450;42.584;23.366;2023-10-31T03:08:13;8.41;82.60
66594;DHT22;53450;42.584;23.366;2023-10-31T03:10:39;8.40;82.68
66594;DHT22;53450;42.584;23.366;2023-10-31T03:13:05;8.48;82.75
66594;DHT22;53450;42.584;23.366;2023-10-31T03:15:30;8.47;82.93
66594;DHT22;53450;42.584;23.366;2023-10-31T03:18:21;8.42;83.04
66594;DHT22;53450;42.584;23.366;2023-10-31T03:20:47;8.37;82.72
66594;DHT22;53450;42.584;23.366;2023-10-31T03:23:13;8.33;83.26
66594;DHT22;53450;42.584;23.366;2023-10-31T03:25:39;8.11;83.59
66594;DHT22;53450;42.584;23.366;2023-10-31T03:28:17;8.17;83.25
66594;DHT22;53450;42.584;23.366;2023-10-31T03:30:45;8.13;83.46
66594;DHT22;53450;42.584;23.366;2023-10-31T03:33:11;8.14;83.66
66594;DHT22;53450;42.584;23.366;2023-10-31T03:35:36;8.17;83.48
66594;DHT22;53450;42.584;23.366;2023-10-31T03:38:02;8.20;83.69
66594;DHT22;53450;42.584;23.366;2023-10-31T03:40:28;8.16;82.95
66594;DHT22;53450;42.584;23.366;2023-10-31T03:42:53;8.10;82.75
66594;DHT22;53450;42.584;23.366;2023-10-31T03:45:19;8.10;82.56
66594;DHT22;53450;42.584;23.366;2023-10-31T03:47:44;7.94;82.91
66594;DHT22;53450;42.584;23.366;2023-10-31T03:50:10;7.93;83.37
66594;DHT22;53450;42.584;23.366;2023-10-31T03:52:36;7.90;83.17
66594;DHT22;53450;42.584;23.366;2023-10-31T03:55:01;7.82;83.59
66594;DHT22;53450;42.584;23.366;2023-10-31T03:57:27;7.80;84.47
66594;DHT22;53450;42.584;23.366;2023-10-31T03:59:52;7.80;84.66
66594;DHT22;53450;42.584;23.366;2023-10-31T04:02:18;7.89;84.83
66594;DHT22;53450;42.584;23.366;2023-10-31T04:04:43;8.01;84.47
66594;DHT22;53450;42.584;23.366;2023-10-31T04:07:09;7.99;84.27
66594;DHT22;53450;42.584;23.366;2023-10-31T04:09:35;8.00;84.01
66594;DHT22;53450;42.584;23.366;2023-10-31T04:12:01;7.97;83.94
66594;DHT22;53450;42.584;23.366;2023-10-31T04:14:27;7.99;84.24
66594;DHT22;53450;42.584;23.366;2023-10-31T04:16:52;7.97;84.37
66594;DHT22;53450;42.584;23.366;2023-10-31T04:19:18;7.97;84.28
66594;DHT22;53450;42.584;23.366;2023-10-31T04:21:43;7.99;84.34
66594;DHT22;53450;42.584;23.366;2023-10-31T04:24:09;7.99;84.20
66594;DHT22;53450;42.584;23.366;2023-10-31T04:26:34;7.87;84.39
66594;DHT22;53450;42.584;23.366;2023-10-31T04:29:00;7.72;84.44
66594;DHT22;53450;42.584;23.366;2023-10-31T04:31:25;7.69;84.87
66594;DHT22;53450;42.584;23.366;2023-10-31T04:33:51;7.76;84.88
66594;DHT22;53450;42.584;23.366;2023-10-31T04:36:16;7.73;84.86
66594;DHT22;53450;42.584;23.366;2023-10-31T04:39:07;7.72;84.11
66594;DHT22;53450;42.584;23.366;2023-10-31T04:41:33;7.66;83.82
66594;DHT22;53450;42.584;23.366;2023-10-31T04:43:58;7.51;83.52
66594;DHT22;53450;42.584;23.366;2023-10-31T04:46:24;7.47;83.96
66594;DHT22;53450;42.584;23.366;2023-10-31T04:48:52;7.44;84.25
66594;DHT22;53450;42.584;23.366;2023-10-31T04:51:17;7.49;84.02
66594;DHT22;53450;42.584;23.366;2023-10-31T04:53:43;7.44;83.99
66594;DHT22;53450;42.584;23.366;2023-10-31T04:56:13;7.49;84.14
66594;DHT22;53450;42.584;23.366;2023-10-31T04:58:39;7.49;84.18
66594;DHT22;53450;42.584;23.366;2023-10-31T05:01:11;7.54;84.14
66594;DHT22;53450;42.584;23.366;2023-10-31T05:03:37;7.54;83.24
66594;DHT22;53450;42.584;23.366;2023-10-31T05:06:04;7.55;83.43
66594;DHT22;53450;42.584;23.366;2023-10-31T05:08:30;7.47;83.56
66594;DHT22;53450;42.584;23.366;2023-10-31T05:10:57;7.44;83.50
66594;DHT22;53450;42.584;23.366;2023-10-31T05:13:47;7.24;83.75
66594;DHT22;53450;42.584;23.366;2023-10-31T05:16:40;7.35;83.94
66594;DHT22;53450;42.584;23.366;2023-10-31T05:19:06;7.39;84.03
66594;DHT22;53450;42.584;23.366;2023-10-31T05:21:31;7.51;83.46
66594;DHT22;53450;42.584;23.366;2023-10-31T05:23:57;7.38;83.64
66594;DHT22;53450;42.584;23.366;2023-10-31T05:26:22;7.49;83.65
66594;DHT22;53450;42.584;23.366;2023-10-31T05:28:48;7.54;83.28
66594;DHT22;53450;42.584;23.366;2023-10-31T05:31:15;7.65;83.51
66594;DHT22;53450;42.584;23.366;2023-10-31T05:33:41;7.70;82.46
66594;DHT22;53450;42.584;23.366;2023-10-31T05:36:17;7.82;81.79
66594;DHT22;53450;42.584;23.366;2023-10-31T05:38:43;7.79;81.53
66594;DHT22;53450;42.584;23.366;2023-10-31T05:41:09;7.85;81.06
66594;DHT22;53450;42.584;23.366;2023-10-31T05:43:34;7.87;81.50
66594;DHT22;53450;42.584;23.366;2023-10-31T05:46:00;7.99;80.97
66594;DHT22;53450;42.584;23.366;2023-10-31T05:48:25;8.00;81.82
66594;DHT22;53450;42.584;23.366;2023-10-31T05:50:51;8.14;80.84
66594;DHT22;53450;42.584;23.366;2023-10-31T05:53:16;8.11;80.81
66594;DHT22;53450;42.584;23.366;2023-10-31T05:55:42;8.31;80.91
66594;DHT22;53450;42.584;23.366;2023-10-31T05:58:07;8.37;80.48
66594;DHT22;53450;42.584;23.366;2023-10-31T06:00:33;8.49;81.26
66594;DHT22;53450;42.584;23.366;2023-10-31T06:02:59;8.58;81.85
66594;DHT22;53450;42.584;23.366;2023-10-31T06:05:24;8.73;82.33
66594;DHT22;53450;42.584;23.366;2023-10-31T06:07:50;8.95;80.96
66594;DHT22;53450;42.584;23.366;2023-10-31T06:10:15;8.99;80.24
66594;DHT22;53450;42.584;23.366;2023-10-31T06:12:41;9.07;80.07
66594;DHT22;53450;42.584;23.366;2023-10-31T06:15:07;9.15;81.04
66594;DHT22;53450;42.584;23.366;2023-10-31T06:17:58;9.36;80.87
66594;DHT22;53450;42.584;23.366;2023-10-31T06:20:24;9.52;80.78
66594;DHT22;53450;42.584;23.366;2023-10-31T06:22:50;9.74;80.53
66594;DHT22;53450;42.584;23.366;2023-10-31T06:25:15;9.99;79.76
66594;DHT22;53450;42.584;23.366;2023-10-31T06:27:41;10.33;82.28
66594;DHT22;53450;42.584;23.366;2023-10-31T06:30:07;10.60;80.83
66594;DHT22;53450;42.584;23.366;2023-10-31T06:32:33;10.64;79.85
66594;DHT22;53450;42.584;23.366;2023-10-31T06:34:58;10.78;79.62
66594;DHT22;53450;42.584;23.366;2023-10-31T06:37:24;10.83;79.86
66594;DHT22;53450;42.584;23.366;2023-10-31T06:39:50;10.91;80.29
66594;DHT22;53450;42.584;23.366;2023-10-31T06:42:15;10.93;80.00
66594;DHT22;53450;42.584;23.366;2023-10-31T06:44:41;10.98;79.94
66594;DHT22;53450;42.584;23.366;2023-10-31T06:47:06;11.08;79.46
66594;DHT22;53450;42.584;23.366;2023-10-31T06:49:32;11.21;78.78
66594;DHT22;53450;42.584;23.366;2023-10-31T06:51:57;11.18;78.76
66594;DHT22;53450;42.584;23.366;2023-10-31T06:54:23;11.38;77.96
66594;DHT22;53450;42.584;23.366;2023-10-31T06:56:48;11.43;77.53
66594;DHT22;53450;42.584;23.366;2023-10-31T06:59:14;11.52;76.96
66594;DHT22;53450;42.584;23.366;2023-10-31T07:01:39;11.55;77.14
66594;DHT22;53450;42.584;23.366;2023-10-31T07:04:05;11.63;76.66
66594;DHT22;53450;42.584;23.366;2023-10-31T07:06:31;11.66;76.98
66594;DHT22;53450;42.584;23.366;2023-10-31T07:08:56;11.67;78.04
66594;DHT22;53450;42.584;23.366;2023-10-31T07:11:22;11.82;77.41
66594;DHT22;53450;42.584;23.366;2023-10-31T07:13:48;11.95;77.10
66594;DHT22;53450;42.584;23.366;2023-10-31T07:16:13;12.11;76.77
66594;DHT22;53450;42.584;23.366;2023-10-31T07:18:39;12.21;76.11
66594;DHT22;53450;42.584;23.366;2023-10-31T07:21:05;12.24;76.46
66594;DHT22;53450;42.584;23.366;2023-10-31T07:23:55;12.40;76.32
66594;DHT22;53450;42.584;23.366;2023-10-31T07:26:47;12.56;76.60
66594;DHT22;53450;42.584;23.366;2023-10-31T07:29:12;12.71;75.51
66594;DHT22;53450;42.584;23.366;2023-10-31T07:31:38;12.76;74.62
66594;DHT22;53450;42.584;23.366;2023-10-31T07:34:07;12.82;75.48
66594;DHT22;53450;42.584;23.366;2023-10-31T07:36:33;12.99;74.09
66594;DHT22;53450;42.584;23.366;2023-10-31T07:39:00;13.11;73.73
66594;DHT22;53450;42.584;23.366;2023-10-31T07:41:26;13.19;73.76
66594;DHT22;53450;42.584;23.366;2023-10-31T07:43:52;13.24;73.35
66594;DHT22;53450;42.584;23.366;2023-10-31T07:46:17;13.37;72.52
66594;DHT22;53450;42.584;23.366;2023-10-31T07:49:08;13.58;71.35
66594;DHT22;53450;42.584;23.366;2023-10-31T07:51:33;13.82;70.52
66594;DHT22;53450;42.584;23.366;2023-10-31T07:53:59;13.89;70.32
66594;DHT22;53450;42.584;23.366;2023-10-31T07:56:24;13.88;70.16
66594;DHT22;53450;42.584;23.366;2023-10-31T07:58:50;13.92;70.00
66594;DHT22;53450;42.584;23.366;2023-10-31T08:01:20;13.89;69.45
66594;DHT22;53450;42.584;23.366;2023-10-31T08:03:46;13.98;68.34
66594;DHT22;53450;42.584;23.366;2023-10-31T08:06:38;14.10;68.02
66594;DHT22;53450;42.584;23.366;2023-10-31T08:09:05;14.12;68.36
66594;DHT22;53450;42.584;23.366;2023-10-31T08:11:32;14.20;68.06
66594;DHT22;53450;42.584;23.366;2023-10-31T08:13:59;14.19;67.55
66594;DHT22;53450;42.584;23.366;2023-10-31T08:16:25;14.30;66.38
66594;DHT22;53450;42.584;23.366;2023-10-31T08:18:50;14.47;65.35
66594;DHT22;53450;42.584;23.366;2023-10-31T08:21:16;14.66;64.01
66594;DHT22;53450;42.584;23.366;2023-10-31T08:23:41;14.78;63.13
66594;DHT22;53450;42.584;23.366;2023-10-31T08:26:09;14.94;63.10
66594;DHT22;53450;42.584;23.366;2023-10-31T08:28:35;14.92;62.64
66594;DHT22;53450;42.584;23.366;2023-10-31T08:31:00;14.92;63.29
66594;DHT22;53450;42.584;23.366;2023-10-31T08:33:26;15.16;62.52
66594;DHT22;53450;42.584;23.366;2023-10-31T08:35:52;15.12;61.16
66594;DHT22;53450;42.584;23.366;2023-10-31T08:38:17;14.91;61.61
66594;DHT22;53450;42.584;23.366;2023-10-31T08:40:43;14.87;61.09
66594;DHT22;53450;42.584;23.366;2023-10-31T08:43:09;14.87;61.74
66594;DHT22;53450;42.584;23.366;2023-10-31T08:45:35;14.91;61.23
66594;DHT22;53450;42.584;23.366;2023-10-31T08:48:01;15.05;60.77
66594;DHT22;53450;42.584;23.366;2023-10-31T08:50:26;15.12;59.23
66594;DHT22;53450;42.584;23.366;2023-10-31T08:52:53;15.09;59.66
66594;DHT22;53450;42.584;23.366;2023-10-31T08:55:18;15.18;59.82
66594;DHT22;53450;42.584;23.366;2023-10-31T08:57:44;15.29;57.51
66594;DHT22;53450;42.584;23.366;2023-10-31T09:00:10;15.43;57.14
66594;DHT22;53450;42.584;23.366;2023-10-31T09:02:35;15.52;55.66
66594;DHT22;53450;42.584;23.366;2023-10-31T09:05:01;15.67;54.02
66594;DHT22;53450;42.584;23.366;2023-10-31T09:07:27;15.76;54.32
66594;DHT22;53450;42.584;23.366;2023-10-31T09:09:52;15.73;53.38
66594;DHT22;53450;42.584;23.366;2023-10-31T09:12:18;15.73;52.14
66594;DHT22;53450;42.584;23.366;2023-10-31T09:14:44;15.79;51.85
66594;DHT22;53450;42.584;23.366;2023-10-31T09:17:09;15.94;53.12
66594;DHT22;53450;42.584;23.366;2023-10-31T09:19:35;15.98;53.54
66594;DHT22;53450;42.584;23.366;2023-10-31T09:22:00;16.00;52.22
66594;DHT22;53450;42.584;23.366;2023-10-31T09:24:26;16.08;52.47
66594;DHT22;53450;42.584;23.366;2023-10-31T09:26:53;16.01;51.71
66594;DHT22;53450;42.584;23.366;2023-10-31T09:29:19;16.10;52.67
66594;DHT22;53450;42.584;23.366;2023-10-31T09:31:44;16.22;52.56
66594;DHT22;53450;42.584;23.366;2023-10-31T09:34:10;16.28;51.17
66594;DHT22;53450;42.584;23.366;2023-10-31T09:36:35;16.42;50.08
66594;DHT22;53450;42.584;23.366;2023-10-31T09:39:01;16.59;49.88
66594;DHT22;53450;42.584;23.366;2023-10-31T09:41:27;16.62;50.47
66594;DHT22;53450;42.584;23.366;2023-10-31T09:43:53;16.77;50.78
66594;DHT22;53450;42.584;23.366;2023-10-31T09:46:19;16.75;50.19
66594;DHT22;53450;42.584;23.366;2023-10-31T09:48:44;16.77;50.95
66594;DHT22;53450;42.584;23.366;2023-10-31T09:51:10;16.80;49.77
66594;DHT22;53450;42.584;23.366;2023-10-31T09:53:41;16.82;50.04
66594;DHT22;53450;42.584;23.366;2023-10-31T09:56:07;17.10;49.70
66594;DHT22;53450;42.584;23.366;2023-10-31T09:58:33;17.31;48.24
66594;DHT22;53450;42.584;23.366;2023-10-31T10:00:59;17.34;46.61
66594;DHT22;53450;42.584;23.366;2023-10-31T10:03:26;17.45;45.48
66594;DHT22;53450;42.584;23.366;2023-10-31T10:05:54;17.58;43.98
66594;DHT22;53450;42.584;23.366;2023-10-31T10:08:20;17.68;44.07
66594;DHT22;53450;42.584;23.366;2023-10-31T10:16:37;17.92;44.78
66594;DHT22;53450;42.584;23.366;2023-10-31T10:19:24;17.95;43.85
66594;DHT22;53450;42.584;23.366;2023-10-31T10:22:00;18.00;43.97
66594;DHT22;53450;42.584;23.366;2023-10-31T10:24:29;17.92;43.86
66594;DHT22;53450;42.584;23.366;2023-10-31T10:26:55;18.09;43.91
66594;DHT22;53450;42.584;23.366;2023-10-31T10:29:23;18.09;43.87
66594;DHT22;53450;42.584;23.366;2023-10-31T10:31:50;18.12;43.08
66594;DHT22;53450;42.584;23.366;2023-10-31T10:34:19;18.17;44.27
66594;DHT22;53450;42.584;23.366;2023-10-31T10:36:53;18.17;43.95
66594;DHT22;53450;42.584;23.366;2023-10-31T10:39:28;18.23;44.19
66594;DHT22;53450;42.584;23.366;2023-10-31T10:42:19;18.34;44.45
66594;DHT22;53450;42.584;23.366;2023-10-31T10:45:08;18.36;43.67
66594;DHT22;53450;42.584;23.366;2023-10-31T10:47:50;18.22;43.89
66594;DHT22;53450;42.584;23.366;2023-10-31T10:50:20;18.32;44.07
66594;DHT22;53450;42.584;23.366;2023-10-31T10:53:16;18.34;43.50
66594;DHT22;53450;42.584;23.366;2023-10-31T10:55:52;18.53;43.11
66594;DHT22;53450;42.584;23.366;2023-10-31T11:01:28;18.57;42.73
66594;DHT22;53450;42.584;23.366;2023-10-31T11:04:01;18.50;41.29
66594;DHT22;53450;42.584;23.366;2023-10-31T11:06:31;18.56;41.22
66594;DHT22;53450;42.584;23.366;2023-10-31T11:09:11;18.58;40.57
66594;DHT22;53450;42.584;23.366;2023-10-31T11:11:54;18.77;40.95
66594;DHT22;53450;42.584;23.366;2023-10-31T11:14:38;18.74;40.32
66594;DHT22;53450;42.584;23.366;2023-10-31T11:17:34;18.51;40.79
66594;DHT22;53450;42.584;23.366;2023-10-31T11:20:09;18.51;42.95
66594;DHT22;53450;42.584;23.366;2023-10-31T11:22:59;18.74;43.11
66594;DHT22;53450;42.584;23.366;2023-10-31T11:25:44;18.58;42.26
66594;DHT22;53450;42.584;23.366;2023-10-31T11:28:18;18.64;42.76
66594;DHT22;53450;42.584;23.366;2023-10-31T11:30:48;18.44;42.77
66594;DHT22;53450;42.584;23.366;2023-10-31T11:33:18;18.53;42.66
66594;DHT22;53450;42.584;23.366;2023-10-31T11:36:03;18.39;42.33
66594;DHT22;53450;42.584;23.366;2023-10-31T11:38:36;18.44;41.66
66594;DHT22;53450;42.584;23.366;2023-10-31T11:41:03;18.22;41.51
66594;DHT22;53450;42.584;23.366;2023-10-31T11:46:05;18.26;42.63
66594;DHT22;53450;42.584;23.366;2023-10-31T11:48:56;18.30;41.70
66594;DHT22;53450;42.584;23.366;2023-10-31T11:51:53;18.51;42.16
66594;DHT22;53450;42.584;23.366;2023-10-31T11:54:45;18.70;41.52
66594;DHT22;53450;42.584;23.366;2023-10-31T11:57:31;18.56;41.08
66594;DHT22;53450;42.584;23.366;2023-10-31T12:00:00;18.54;41.58
66594;DHT22;53450;42.584;23.366;2023-10-31T12:02:41;18.33;41.99
66594;DHT22;53450;42.584;23.366;2023-10-31T12:05:25;18.34;43.15
66594;DHT22;53450;42.584;23.366;2023-10-31T12:08:00;18.44;42.35
66594;DHT22;53450;42.584;23.366;2023-10-31T12:10:29;18.37;42.69
66594;DHT22;53450;42.584;23.366;2023-10-31T12:13:19;18.34;43.30
66594;DHT22;53450;42.584;23.366;2023-10-31T12:15:52;18.27;43.28
66594;DHT22;53450;42.584;23.366;2023-10-31T12:18:30;18.25;44.19
66594;DHT22;53450;42.584;23.366;2023-10-31T12:20:59;18.37;44.59
66594;DHT22;53450;42.584;23.366;2023-10-31T12:23:43;18.50;44.63
66594;DHT22;53450;42.584;23.366;2023-10-31T12:26:26;18.57;43.33
66594;DHT22;53450;42.584;23.366;2023-10-31T12:29:36;18.60;42.88
66594;DHT22;53450;42.584;23.366;2023-10-31T12:32:21;18.84;42.08
66594;DHT22;53450;42.584;23.366;2023-10-31T12:34:54;18.74;41.23
66594;DHT22;53450;42.584;23.366;2023-10-31T12:40:02;19.11;40.80
66594;DHT22;53450;42.584;23.366;2023-10-31T12:42:34;19.09;40.61
66594;DHT22;53450;42.584;23.366;2023-10-31T12:45:25;19.07;39.86
66594;DHT22;53450;42.584;23.366;2023-10-31T12:48:07;19.16;39.55
66594;DHT22;53450;42.584;23.366;2023-10-31T12:51:07;19.22;38.70
66594;DHT22;53450;42.584;23.366;2023-10-31T12:53:47;19.14;39.23
66594;DHT22;53450;42.584;23.366;2023-10-31T12:59:16;18.99;39.38
66594;DHT22;53450;42.584;23.366;2023-10-31T13:01:49;19.01;38.85
66594;DHT22;53450;42.584;23.366;2023-10-31T13:04:25;18.84;39.68
66594;DHT22;53450;42.584;23.366;2023-10-31T13:07:05;18.75;40.42
66594;DHT22;53450;42.584;23.366;2023-10-31T13:23:06;18.20;41.20
66594;DHT22;53450;42.584;23.366;2023-10-31T13:25:35;18.22;43.27
66594;DHT22;53450;42.584;23.366;2023-10-31T13:28:00;18.27;42.34
66594;DHT22;53450;42.584;23.366;2023-10-31T13:30:26;18.32;41.65
66594;DHT22;53450;42.584;23.366;2023-10-31T13:32:52;18.25;42.02
66594;DHT22;53450;42.584;23.366;2023-10-31T13:35:18;18.27;42.30
66594;DHT22;53450;42.584;23.366;2023-10-31T13:37:44;18.25;42.19
66594;DHT22;53450;42.584;23.366;2023-10-31T13:40:10;18.34;42.26
66594;DHT22;53450;42.584;23.366;2023-10-31T13:42:41;18.44;40.77
66594;DHT22;53450;42.584;23.366;2023-10-31T13:45:07;18.50;41.21
66594;DHT22;53450;42.584;23.366;2023-10-31T13:47:35;18.58;41.04
66594;DHT22;53450;42.584;23.366;2023-10-31T13:50:07;18.56;40.67
66594;DHT22;53450;42.584;23.366;2023-10-31T13:52:34;18.47;41.72
66594;DHT22;53450;42.584;23.366;2023-10-31T13:55:00;18.43;42.31
66594;DHT22;53450;42.584;23.366;2023-10-31T13:57:26;18.47;42.49
66594;DHT22;53450;42.584;23.366;2023-10-31T13:59:53;18.41;42.71
66594;DHT22;53450;42.584;23.366;2023-10-31T14:02:19;18.26;43.77
66594;DHT22;53450;42.584;23.366;2023-10-31T14:05:09;18.25;43.26
66594;DHT22;53450;42.584;23.366;2023-10-31T14:07:37;18.16;44.03
66594;DHT22;53450;42.584;23.366;2023-10-31T14:10:02;18.14;42.74
66594;DHT22;53450;42.584;23.366;2023-10-31T14:12:28;18.17;42.07
66594;DHT22;53450;42.584;23.366;2023-10-31T14:14:54;18.20;41.89
66594;DHT22;53450;42.584;23.366;2023-10-31T14:17:20;18.14;42.39
66594;DHT22;53450;42.584;23.366;2023-10-31T14:19:50;18.09;42.60
66594;DHT22;53450;42.584;23.366;2023-10-31T14:22:16;18.05;43.31
66594;DHT22;53450;42.584;23.366;2023-10-31T14:24:42;18.02;43.85
66594;DHT22;53450;42.584;23.366;2023-10-31T14:27:35;17.93;43.53
66594;DHT22;53450;42.584;23.366;2023-10-31T14:30:29;17.71;44.02
66594;DHT22;53450;42.584;23.366;2023-10-31T14:32:55;17.55;45.48
66594;DHT22;53450;42.584;23.366;2023-10-31T14:35:20;17.55;46.86
66594;DHT22;53450;42.584;23.366;2023-10-31T14:37:46;17.45;47.19
66594;DHT22;53450;42.584;23.366;2023-10-31T14:40:12;17.34;47.59
66594;DHT22;53450;42.584;23.366;2023-10-31T14:42:47;17.19;47.96
66594;DHT22;53450;42.584;23.366;2023-10-31T14:45:18;17.07;47.40
66594;DHT22;53450;42.584;23.366;2023-10-31T14:47:47;17.09;47.52
66594;DHT22;53450;42.584;23.366;2023-10-31T14:50:15;16.99;48.09
66594;DHT22;53450;42.584;23.366;2023-10-31T14:53:01;16.90;47.90
66594;DHT22;53450;42.584;23.366;2023-10-31T14:55:27;17.10;48.25
66594;DHT22;53450;42.584;23.366;2023-10-31T14:57:56;17.13;49.28
66594;DHT22;53450;42.584;23.366;2023-10-31T15:00:26;17.02;49.64
66594;DHT22;53450;42.584;23.366;2023-10-31T15:03:04;17.00;50.14
66594;DHT22;53450;42.584;23.366;2023-10-31T15:06:08;16.89;50.79
66594;DHT22;53450;42.584;23.366;2023-10-31T15:09:23;16.77;51.14
66594;DHT22;53450;42.584;23.366;2023-10-31T15:12:06;16.71;51.59
66594;DHT22;53450;42.584;23.366;2023-10-31T15:15:03;16.61;51.82
66594;DHT22;53450;42.584;23.366;2023-10-31T15:18:09;16.52;52.57
66594;DHT22;53450;42.584;23.366;2023-10-31T15:20:49;16.36;52.42
66594;DHT22;53450;42.584;23.366;2023-10-31T15:23:17;16.22;52.73
66594;DHT22;53450;42.584;23.366;2023-10-31T15:25:53;16.17;53.71
66594;DHT22;53450;42.584;23.366;2023-10-31T15:29:11;16.07;52.72
66594;DHT22;53450;42.584;23.366;2023-10-31T15:32:22;16.10;53.29
66594;DHT22;53450;42.584;23.366;2023-10-31T15:35:34;16.11;54.09
66594;DHT22;53450;42.584;23.366;2023-10-31T15:38:23;16.04;54.10
66594;DHT22;53450;42.584;23.366;2023-10-31T15:41:09;15.90;53.91
66594;DHT22;53450;42.584;23.366;2023-10-31T15:43:40;15.82;54.25
66594;DHT22;53450;42.584;23.366;2023-10-31T15:46:09;15.84;54.49
66594;DHT22;53450;42.584;23.366;2023-10-31T15:48:52;15.76;55.06
66594;DHT22;53450;42.584;23.366;2023-10-31T15:51:43;15.69;54.40
66594;DHT22;53450;42.584;23.366;2023-10-31T15:54:35;15.70;55.39
66594;DHT22;53450;42.584;23.366;2023-10-31T15:57:28;15.64;55.14
66594;DHT22;53450;42.584;23.366;2023-10-31T15:59:56;15.63;56.00
66594;DHT22;53450;42.584;23.366;2023-10-31T16:02:22;15.52;56.02
66594;DHT22;53450;42.584;23.366;2023-10-31T16:04:47;15.45;55.10
66594;DHT22;53450;42.584;23.366;2023-10-31T16:07:16;15.34;55.50
66594;DHT22;53450;42.584;23.366;2023-10-31T16:09:42;15.40;55.41
66594;DHT22;53450;42.584;23.366;2023-10-31T16:12:09;15.52;54.68
66594;DHT22;53450;42.584;23.366;2023-10-31T16:14:35;15.55;53.55